TXKF/BDA METAR and TAF weather

Enter ICAO airport designator
Station Type Date Time Source
TXKF METAR 2022/06/28 09:55 UTC NOAA

TXKF 280955Z 18009KT 9999 SCT007 SCT084 BKN170 BKN250 24/23 Q1023


Station Type Date Time Source
TXKF Decoded METAR 2022/06/28 09:55 UTC NOAA

Bermuda, Bermuda (TXKF) 32-22N 064-41W
Jun 28, 2022 - 05:55 AM EDT / 2022.06.28 0955 UTC
Wind: from the S (180 degrees) at 10 MPH (9 KT):0
Visibility: greater than 7 mile(s):0
Sky conditions: mostly cloudy
Temperature: 75 F (24 C)
Dew Point: 73 F (23 C)
Relative Humidity: 94%
Pressure (altimeter): 30.21 in. Hg (1023 hPa)
ob: TXKF 280955Z 18009KT 9999 SCT007 SCT084 BKN170 BKN250 24/23 Q1023
cycle: 10

Station Type Date Time Source
TXKF TAF 2022/06/28 06:47 UTC NOAA

TAF TXKF 280531Z 2806/2906 17009KT 9999 VCSH FEW007 SCT020 BKN100 PROB40
TEMPO 2806/2818 SCT007 BKN012 PROB30
TEMPO 2806/2812 3000 SHRA BKN007 PROB30
TEMPO 2818/2906 BKN010

Example: see airport list